CheckWX is a tool to help pilots better visualize weather data.  It is not intended as a substitute for an official pre-flight weather briefing.

06:44:38 UTC

WBGB TAF
Bintulu Airport
Bintulu, Malaysia
TAF WBGB 160500Z 1606/1706 VRB03KT 9999 SCT016 TEMPO 1606/1610 28007KT 4000 TSRA FEW015CB

Jun-16@
06:00 UTC

Jun-16 @ 06:00 UTC

Jun-17@
06:00 UTC

Jun-17 @ 06:00 UTC

TAF WBGB 160500Z 1606/1706 VRB03KT 9999 SCT016
Wind
  • Variable at 3 KTS
Cloud Levels
  • Scattered at 1,600' AGL

Jun-16@
06:00 UTC

Jun-16 @ 06:00 UTC

Jun-16@
10:00 UTC

Jun-16 @ 10:00 UTC

TEMPO 1606/1610 28007KT 4000 TSRA FEW015CB

Temporary

Temporary Changes expected for less than half the time period

Wind
  • 280° at 7 KTS
Conditions
Thunderstorm, Rain
Cloud Levels
  • Few at 1,500' AGL